Celik 1 — 9HKY9 — position and weather

sailwx.info

Track history (hours):
 
Tides and Currents Weather Stations Pressure Air Temp Water Temp Dewpoint Dewpoint Depression Visibility Wind Speed Wind Dir Waves Ship Positions

Celik 1

Last reported at 2015-Apr-19 15:30 UTC. Time now 2015-Apr-19 15:40 UTC.
Position N 32°50' E 035°00'.

Length 121 m; draft 6 m.

Type: Cargo ship. MMSI: 249114000.

Date/timePositionNaut miles runAvg speedWind from/ knotsBaromVisibWave heightAir tempDewpointWater temp
2015-Apr-19 15:30N 32°50' E 035°00'0 0.0
2015-Apr-19 14:33N 32°50' E 035°00'0 0.0
2015-Apr-19 13:30N 32°50' E 035°00'0 0.0
2015-Apr-19 12:30N 32°50' E 035°00'0 0.0
2015-Apr-19 10:33N 32°50' E 035°00'0 0.0
2015-Apr-18 21:06N 32°50' E 035°00'0 0.0
2015-Apr-17 22:18N 32°50' E 035°00'0 0.0
2015-Apr-17 18:33N 32°50' E 035°00'0 0.0
2015-Apr-17 17:06N 32°50' E 035°00'0 0.0
2015-Apr-17 16:33N 32°50' E 035°00'0 0.0
2015-Apr-17 14:21N 32°50' E 035°00'0 0.0
2015-Apr-17 13:33N 32°50' E 035°00'0 0.0
2015-Apr-17 12:33N 32°50' E 035°00'0 0.0
2015-Apr-17 10:21N 32°50' E 035°00'0 0.0
2015-Apr-17 00:12N 32°50' E 035°00'0 0.0
2015-Apr-16 22:27N 32°50' E 035°00'11 0.3
2015-Apr-15 13:29N 32°55' E 034°48'9 9.8
2015-Apr-15 12:33N 32°57' E 034°37'9 9.4
2015-Apr-15 11:33N 33°03' E 034°28'10 9.6
2015-Apr-15 10:33N 33°08' E 034°18'15 9.8
2015-Apr-15 09:03N 33°15' E 034°03'94 9.9
2015-Apr-14 23:33N 33°57' E 032°23'328 9.9
2015-Apr-13 14:32N 36°52' E 026°42'1210.7
2015-Apr-13 13:23N 37°03' E 026°35'910.7
2015-Apr-13 12:31N 37°12' E 026°30'2110.4
2015-Apr-13 10:29N 37°31' E 026°21'1110.5
2015-Apr-13 09:28N 37°42' E 026°24'  
Track history (hours):
 
Tides and Currents Weather Stations Pressure Air Temp Water Temp Dewpoint Dewpoint Depression Visibility Wind Speed Wind Dir Waves Ship Positions

Celik 1

Last reported at 2015-Apr-19 15:30 UTC. Time now 2015-Apr-19 15:40 UTC.
Position N 32°50' E 035°00'.

Length 121 m; draft 6 m.

Type: Cargo ship. MMSI: 249114000.

Date/timePositionNaut miles runAvg speedWind from/ knotsBaromVisibWave heightAir tempDewpointWater temp
2015-Apr-19 15:30N 32°50' E 035°00'0 0.0
2015-Apr-19 14:33N 32°50' E 035°00'0 0.0
2015-Apr-19 13:30N 32°50' E 035°00'0 0.0
2015-Apr-19 12:30N 32°50' E 035°00'0 0.0
2015-Apr-19 10:33N 32°50' E 035°00'0 0.0
2015-Apr-18 21:06N 32°50' E 035°00'0 0.0
2015-Apr-17 22:18N 32°50' E 035°00'0 0.0
2015-Apr-17 18:33N 32°50' E 035°00'0 0.0
2015-Apr-17 17:06N 32°50' E 035°00'0 0.0
2015-Apr-17 16:33N 32°50' E 035°00'0 0.0
2015-Apr-17 14:21N 32°50' E 035°00'0 0.0
2015-Apr-17 13:33N 32°50' E 035°00'0 0.0
2015-Apr-17 12:33N 32°50' E 035°00'0 0.0
2015-Apr-17 10:21N 32°50' E 035°00'0 0.0
2015-Apr-17 00:12N 32°50' E 035°00'0 0.0
2015-Apr-16 22:27N 32°50' E 035°00'11 0.3
2015-Apr-15 13:29N 32°55' E 034°48'9 9.8
2015-Apr-15 12:33N 32°57' E 034°37'9 9.4
2015-Apr-15 11:33N 33°03' E 034°28'10 9.6
2015-Apr-15 10:33N 33°08' E 034°18'15 9.8
2015-Apr-15 09:03N 33°15' E 034°03'94 9.9
2015-Apr-14 23:33N 33°57' E 032°23'328 9.9
2015-Apr-13 14:32N 36°52' E 026°42'1210.7
2015-Apr-13 13:23N 37°03' E 026°35'910.7
2015-Apr-13 12:31N 37°12' E 026°30'2110.4
2015-Apr-13 10:29N 37°31' E 026°21'1110.5
2015-Apr-13 09:28N 37°42' E 026°24'  

Dump ship's entire track history